Time;durP1;ratioP1;P1;durP2;ratioP2;P2;SDS_P1;SDS_P2;PMS_P1;PMS_P2;Temp;Humidity;BMP_temperature;BMP_pressure;BME280_temperature;BME280_humidity;BME280_pressure;Samples;Min_cycle;Max_cycle;Signal;HPM_P1;HPM_P2
2023/03/12 00:00:31;;;;;;;4.65;1.35;;;;;;;;;;5281912;28;20056;-75
2023/03/12 00:03:02;;;;;;;3.95;0.90;;;;;;;;;;5281289;28;20078;-75
2023/03/12 00:05:37;;;;;;;5.07;1.58;;;;;;;;;;5281615;28;20020;-75
2023/03/12 00:08:09;;;;;;;4.40;1.00;;;;;;;;;;5282240;28;20120;-75
2023/03/12 00:10:41;;;;;;;4.95;1.42;;;;;;;;;;5280869;28;20123;-75
2023/03/12 00:13:12;;;;;;;6.80;1.20;;;;;;;;;;5282131;28;20016;-75
2023/03/12 00:15:43;;;;;;;3.90;1.08;;;;;;;;;;5281499;28;20379;-75
2023/03/12 00:18:14;;;;;;;3.80;1.10;;;;;;;;;;5281214;28;20012;-75
2023/03/12 00:20:52;;;;;;;4.13;1.00;;;;;;;;;;5281278;28;20032;-75
2023/03/12 00:23:23;;;;;;;4.07;1.10;;;;;;;;;;5281738;28;20104;-75
2023/03/12 00:25:58;;;;;;;3.08;1.05;;;;;;;;;;5280975;28;20477;-75
2023/03/12 00:28:30;;;;;;;2.45;0.88;;;;;;;;;;5281216;28;20013;-75
2023/03/12 00:31:02;;;;;;;4.68;1.05;;;;;;;;;;5281276;28;20492;-75
2023/03/12 00:33:33;;;;;;;3.80;0.90;;;;;;;;;;5281468;28;20104;-75
2023/03/12 00:36:05;;;;;;;4.05;1.02;;;;;;;;;;5282332;28;20091;-75
2023/03/12 00:38:36;;;;;;;2.80;0.88;;;;;;;;;;5280352;28;20032;-75
2023/03/12 00:41:07;;;;;;;4.03;0.98;;;;;;;;;;5281674;28;20413;-75
2023/03/12 00:43:38;;;;;;;3.63;1.02;;;;;;;;;;5281322;28;20057;-75
2023/03/12 00:46:09;;;;;;;4.05;0.80;;;;;;;;;;5280899;28;20028;-75
2023/03/12 00:48:41;;;;;;;2.65;0.77;;;;;;;;;;5281087;28;20016;-75
2023/03/12 00:51:12;;;;;;;4.13;1.10;;;;;;;;;;5285287;28;20036;-75
2023/03/12 00:53:43;;;;;;;3.40;0.82;;;;;;;;;;5284170;28;20455;-75
2023/03/12 00:56:14;;;;;;;3.20;0.90;;;;;;;;;;5285711;28;20069;-75
2023/03/12 00:58:45;;;;;;;4.30;1.23;;;;;;;;;;5285026;28;20020;-75
2023/03/12 01:01:18;;;;;;;4.57;1.40;;;;;;;;;;5284914;28;20134;-76
2023/03/12 01:03:52;;;;;;;3.55;1.20;;;;;;;;;;5284922;28;20540;-76
2023/03/12 01:06:24;;;;;;;4.38;0.77;;;;;;;;;;5284347;28;20038;-76
2023/03/12 01:08:55;;;;;;;3.60;0.82;;;;;;;;;;5285427;28;20417;-75
2023/03/12 01:11:27;;;;;;;4.88;1.02;;;;;;;;;;5284405;28;20032;-76
2023/03/12 01:13:59;;;;;;;3.70;0.85;;;;;;;;;;5284334;28;20024;-76
2023/03/12 01:16:30;;;;;;;4.13;1.08;;;;;;;;;;5284398;28;20024;-75
2023/03/12 01:19:02;;;;;;;6.07;0.93;;;;;;;;;;5285244;28;20447;-74
2023/03/12 01:21:33;;;;;;;3.95;1.00;;;;;;;;;;5283848;28;20052;-76
2023/03/12 01:24:04;;;;;;;2.92;0.80;;;;;;;;;;5285184;28;20035;-75
2023/03/12 01:26:35;;;;;;;2.42;0.90;;;;;;;;;;5284571;28;20025;-75
2023/03/12 01:29:07;;;;;;;4.15;0.80;;;;;;;;;;5284077;28;20027;-75
2023/03/12 01:31:38;;;;;;;4.93;1.20;;;;;;;;;;5284268;28;20719;-75
2023/03/12 01:34:10;;;;;;;2.08;0.80;;;;;;;;;;5283970;28;20170;-75
2023/03/12 01:36:41;;;;;;;4.45;1.23;;;;;;;;;;5284309;28;20098;-75
2023/03/12 01:39:13;;;;;;;3.75;1.00;;;;;;;;;;5284687;28;20055;-75
2023/03/12 01:41:44;;;;;;;5.30;1.10;;;;;;;;;;5283230;28;20020;-75
2023/03/12 01:44:15;;;;;;;4.07;1.10;;;;;;;;;;5284824;28;20009;-75
2023/03/12 01:46:46;;;;;;;4.85;1.10;;;;;;;;;;5284166;28;20035;-75
2023/03/12 01:49:17;;;;;;;4.10;1.00;;;;;;;;;;5283693;28;20028;-75
2023/03/12 01:51:53;;;;;;;4.95;1.27;;;;;;;;;;5283869;28;20111;-75
2023/03/12 01:54:24;;;;;;;5.47;1.60;;;;;;;;;;5284124;28;20367;-76
2023/03/12 01:56:55;;;;;;;3.50;1.08;;;;;;;;;;5283790;28;20028;-75
2023/03/12 01:59:29;;;;;;;5.95;0.90;;;;;;;;;;5283663;28;20030;-76
2023/03/12 02:02:01;;;;;;;3.92;1.48;;;;;;;;;;5284030;28;20013;-75
2023/03/12 02:04:33;;;;;;;5.15;1.30;;;;;;;;;;5282904;28;20013;-76
2023/03/12 02:07:09;;;;;;;4.10;1.30;;;;;;;;;;5284373;28;20028;-76
2023/03/12 02:09:41;;;;;;;5.88;1.17;;;;;;;;;;5282645;28;20013;-76
2023/03/12 02:12:13;;;;;;;3.40;1.30;;;;;;;;;;5284045;28;20129;-76
2023/03/12 02:14:44;;;;;;;2.90;0.80;;;;;;;;;;5283239;28;20043;-76
2023/03/12 02:17:16;;;;;;;4.28;1.10;;;;;;;;;;5283444;28;20021;-75
2023/03/12 02:20:09;;;;;;;4.78;1.13;;;;;;;;;;5283418;28;20017;-76
2023/03/12 02:22:43;;;;;;;4.40;1.17;;;;;;;;;;5283372;28;20021;-76
2023/03/12 02:25:34;;;;;;;5.13;1.05;;;;;;;;;;5282958;28;20028;-76
2023/03/12 02:28:07;;;;;;;6.22;1.55;;;;;;;;;;5283772;28;20017;-76
2023/03/12 02:30:39;;;;;;;5.68;1.40;;;;;;;;;;5282234;28;20107;-76
2023/03/12 02:33:10;;;;;;;3.38;1.17;;;;;;;;;;5283585;28;20059;-75
2023/03/12 02:35:41;;;;;;;5.07;1.33;;;;;;;;;;5283063;28;20490;-76
2023/03/12 02:38:31;;;;;;;8.32;1.15;;;;;;;;;;5282997;28;20025;-76
2023/03/12 02:41:07;;;;;;;3.40;1.63;;;;;;;;;;5283384;28;20450;-76
2023/03/12 02:43:39;;;;;;;6.03;2.38;;;;;;;;;;5282720;28;20048;-76
2023/03/12 02:46:11;;;;;;;5.68;1.58;;;;;;;;;;5282524;28;20494;-74
2023/03/12 02:48:42;;;;;;;4.88;1.30;;;;;;;;;;5283024;28;20020;-75
2023/03/12 02:51:13;;;;;;;4.60;1.90;;;;;;;;;;5283119;28;20045;-75
2023/03/12 02:53:45;;;;;;;5.30;1.40;;;;;;;;;;5281857;28;20095;-74
2023/03/12 02:56:16;;;;;;;3.08;1.10;;;;;;;;;;5283185;28;20043;-75
2023/03/12 02:58:47;;;;;;;5.47;1.40;;;;;;;;;;5281516;28;20025;-75
2023/03/12 03:01:19;;;;;;;4.43;1.60;;;;;;;;;;5283201;28;20510;-76
2023/03/12 03:03:50;;;;;;;4.38;1.73;;;;;;;;;;5282727;28;20017;-76
2023/03/12 03:06:21;;;;;;;4.60;1.60;;;;;;;;;;5281918;28;20020;-75
2023/03/12 03:08:53;;;;;;;6.68;1.50;;;;;;;;;;5282695;28;20085;-75
2023/03/12 03:11:24;;;;;;;6.03;1.67;;;;;;;;;;5281670;28;20048;-75
2023/03/12 03:13:55;;;;;;;8.25;1.50;;;;;;;;;;5281799;28;20047;-75
2023/03/12 03:16:26;;;;;;;7.07;1.77;;;;;;;;;;5282265;28;20024;-75
2023/03/12 03:18:57;;;;;;;5.22;1.20;;;;;;;;;;5282697;28;20016;-75
2023/03/12 03:21:29;;;;;;;3.67;1.20;;;;;;;;;;5281081;28;20494;-75
2023/03/12 03:24:00;;;;;;;5.57;1.00;;;;;;;;;;5282605;28;20024;-75
2023/03/12 03:26:31;;;;;;;5.65;1.35;;;;;;;;;;5281225;28;20547;-76
2023/03/12 03:29:03;;;;;;;5.53;1.30;;;;;;;;;;5282696;28;20017;-75
2023/03/12 03:31:34;;;;;;;5.25;1.08;;;;;;;;;;5282016;28;20487;-76
2023/03/12 03:34:05;;;;;;;3.58;1.50;;;;;;;;;;5281656;28;20019;-76
2023/03/12 03:36:36;;;;;;;4.15;1.00;;;;;;;;;;5281824;28;20033;-75
2023/03/12 03:39:07;;;;;;;4.68;1.55;;;;;;;;;;5282614;28;20410;-76
2023/03/12 03:41:39;;;;;;;5.35;1.38;;;;;;;;;;5280958;28;20043;-76
2023/03/12 03:44:10;;;;;;;2.80;0.90;;;;;;;;;;5282331;28;20016;-76
2023/03/12 03:46:41;;;;;;;4.50;1.17;;;;;;;;;;5281613;28;20379;-76
2023/03/12 03:49:12;;;;;;;3.78;1.08;;;;;;;;;;5281516;28;20035;-76
2023/03/12 03:51:43;;;;;;;3.92;1.10;;;;;;;;;;5281842;28;20096;-76
2023/03/12 03:54:15;;;;;;;3.92;1.35;;;;;;;;;;5282390;28;20013;-76
2023/03/12 03:56:46;;;;;;;2.55;1.08;;;;;;;;;;5281034;28;20020;-76
2023/03/12 03:59:17;;;;;;;3.22;1.10;;;;;;;;;;5282146;28;20024;-76
2023/03/12 04:01:48;;;;;;;6.80;1.70;;;;;;;;;;5280973;28;20044;-76
2023/03/12 04:04:20;;;;;;;3.65;1.20;;;;;;;;;;5282090;28;20029;-76
2023/03/12 04:06:51;;;;;;;4.13;1.17;;;;;;;;;;5281809;28;20030;-76
2023/03/12 04:09:22;;;;;;;4.60;1.08;;;;;;;;;;5280992;28;20440;-75
2023/03/12 04:11:53;;;;;;;3.63;1.10;;;;;;;;;;5281944;28;20040;-76
2023/03/12 04:14:24;;;;;;;4.35;1.30;;;;;;;;;;5281628;28;20050;-76
2023/03/12 04:16:55;;;;;;;3.80;1.15;;;;;;;;;;5281203;28;20211;-76
2023/03/12 04:19:27;;;;;;;2.95;1.17;;;;;;;;;;5281354;28;20433;-76
2023/03/12 04:21:58;;;;;;;5.68;1.58;;;;;;;;;;5281859;28;20082;-76
2023/03/12 04:24:29;;;;;;;3.90;1.20;;;;;;;;;;5283831;28;20470;-76
2023/03/12 04:27:00;;;;;;;4.20;1.35;;;;;;;;;;5286281;28;20024;-76
2023/03/12 04:29:32;;;;;;;3.67;1.13;;;;;;;;;;5285580;28;20017;-75
2023/03/12 04:32:03;;;;;;;4.13;1.27;;;;;;;;;;5285250;28;20048;-75
2023/03/12 04:34:34;;;;;;;4.55;1.55;;;;;;;;;;5285413;28;20012;-75
2023/03/12 04:37:05;;;;;;;6.80;2.13;;;;;;;;;;5285431;28;20070;-76
2023/03/12 04:39:36;;;;;;;5.53;1.70;;;;;;;;;;5285485;28;20025;-75
2023/03/12 04:42:08;;;;;;;4.63;1.00;;;;;;;;;;5285695;28;20024;-75
2023/03/12 04:44:39;;;;;;;3.58;1.27;;;;;;;;;;5284407;28;20440;-75
2023/03/12 04:47:11;;;;;;;6.50;1.48;;;;;;;;;;5285583;28;20023;-75
2023/03/12 04:49:42;;;;;;;7.26;1.68;;;;;;;;;;5285053;28;20049;-76
2023/03/12 04:52:13;;;;;;;3.60;1.23;;;;;;;;;;5284958;28;20024;-76
2023/03/12 04:54:44;;;;;;;7.45;1.65;;;;;;;;;;5284979;28;20017;-75
2023/03/12 04:57:15;;;;;;;6.42;1.12;;;;;;;;;;5285400;28;20437;-75
2023/03/12 04:59:46;;;;;;;5.35;1.42;;;;;;;;;;5284340;28;20368;-76
2023/03/12 05:02:18;;;;;;;5.50;1.30;;;;;;;;;;5285402;28;20016;-75
2023/03/12 05:04:49;;;;;;;6.15;1.88;;;;;;;;;;5284718;28;20023;-75
2023/03/12 05:07:20;;;;;;;5.38;1.30;;;;;;;;;;5284306;28;20350;-76
2023/03/12 05:09:51;;;;;;;4.85;1.40;;;;;;;;;;5285141;28;20036;-76
2023/03/12 05:12:23;;;;;;;3.85;1.20;;;;;;;;;;5284367;28;20123;-76
2023/03/12 05:14:54;;;;;;;5.78;1.45;;;;;;;;;;5284774;28;20028;-76
2023/03/12 05:17:25;;;;;;;4.55;1.38;;;;;;;;;;5284592;28;20048;-76
2023/03/12 05:19:56;;;;;;;4.53;1.42;;;;;;;;;;5284323;28;20393;-75
2023/03/12 05:22:27;;;;;;;4.75;1.33;;;;;;;;;;5284404;28;20040;-76
2023/03/12 05:24:58;;;;;;;3.75;1.20;;;;;;;;;;5285077;28;20020;-76
2023/03/12 05:27:30;;;;;;;3.63;1.58;;;;;;;;;;5283868;28;20013;-76
2023/03/12 05:30:01;;;;;;;5.07;1.42;;;;;;;;;;5284631;28;20020;-76
2023/03/12 05:32:33;;;;;;;4.03;1.30;;;;;;;;;;5284108;28;20028;-76
2023/03/12 05:35:04;;;;;;;7.28;1.75;;;;;;;;;;5282962;28;20040;-76
2023/03/12 05:37:35;;;;;;;7.45;1.40;;;;;;;;;;5283937;28;20034;-76
2023/03/12 05:40:09;;;;;;;4.03;0.98;;;;;;;;;;5284419;28;20027;-76
2023/03/12 05:42:40;;;;;;;6.03;1.30;;;;;;;;;;5283929;28;20025;-76
2023/03/12 05:45:11;;;;;;;3.88;1.20;;;;;;;;;;5284517;28;20086;-76
2023/03/12 05:47:42;;;;;;;3.25;1.08;;;;;;;;;;5283242;28;20020;-76
2023/03/12 05:50:15;;;;;;;6.22;1.20;;;;;;;;;;5284220;28;20067;-76
2023/03/12 05:52:46;;;;;;;2.58;1.05;;;;;;;;;;5283732;28;20383;-76
2023/03/12 05:55:17;;;;;;;5.28;1.45;;;;;;;;;;5283711;28;20027;-75
2023/03/12 05:57:48;;;;;;;4.88;1.30;;;;;;;;;;5283877;28;20012;-76
2023/03/12 06:00:20;;;;;;;6.63;1.48;;;;;;;;;;5283894;28;20014;-75
2023/03/12 06:02:51;;;;;;;4.70;1.00;;;;;;;;;;5283173;28;20495;-75
2023/03/12 06:05:22;;;;;;;5.30;1.20;;;;;;;;;;5283465;28;20034;-75
2023/03/12 06:07:53;;;;;;;3.60;1.15;;;;;;;;;;5283515;28;20459;-75
2023/03/12 06:10:25;;;;;;;6.50;1.77;;;;;;;;;;5282505;28;20020;-75
2023/03/12 06:12:56;;;;;;;5.13;1.30;;;;;;;;;;5283980;28;20028;-75
2023/03/12 06:15:27;;;;;;;3.20;1.35;;;;;;;;;;5282651;28;20017;-76
2023/03/12 06:17:58;;;;;;;5.95;1.30;;;;;;;;;;5283672;28;20035;-76
2023/03/12 06:20:29;;;;;;;2.78;1.08;;;;;;;;;;5283173;28;20009;-77
2023/03/12 06:23:01;;;;;;;6.40;1.60;;;;;;;;;;5283081;28;20123;-76
2023/03/12 06:25:32;;;;;;;3.58;1.27;;;;;;;;;;5283330;28;20375;-75
2023/03/12 06:28:03;;;;;;;4.78;1.80;;;;;;;;;;5283774;28;20078;-77
2023/03/12 06:30:34;;;;;;;6.25;1.50;;;;;;;;;;5282387;28;20023;-76
2023/03/12 06:33:07;;;;;;;4.47;1.60;;;;;;;;;;5283634;28;20020;-77
2023/03/12 06:35:38;;;;;;;6.93;1.92;;;;;;;;;;5283116;28;20430;-77
2023/03/12 06:38:10;;;;;;;5.55;2.35;;;;;;;;;;5282822;28;20122;-76
2023/03/12 06:40:41;;;;;;;4.20;1.88;;;;;;;;;;5282835;28;20078;-77
2023/03/12 06:43:12;;;;;;;3.88;1.63;;;;;;;;;;5283377;28;20073;-76
2023/03/12 06:45:43;;;;;;;3.25;1.83;;;;;;;;;;5281723;28;20025;-77
2023/03/12 06:48:14;;;;;;;6.28;2.80;;;;;;;;;;5283180;28;20040;-77
2023/03/12 06:50:46;;;;;;;5.00;2.08;;;;;;;;;;5281673;28;20049;-77
2023/03/12 06:53:17;;;;;;;5.38;2.35;;;;;;;;;;5282934;28;20059;-76
2023/03/12 06:55:49;;;;;;;5.30;2.22;;;;;;;;;;5282786;28;20016;-76
2023/03/12 06:58:20;;;;;;;4.70;2.13;;;;;;;;;;5281990;28;20032;-77
2023/03/12 07:00:52;;;;;;;5.32;2.22;;;;;;;;;;5282432;28;20016;-77
2023/03/12 07:03:23;;;;;;;4.57;2.00;;;;;;;;;;5282697;28;20107;-76
2023/03/12 07:05:55;;;;;;;3.90;2.25;;;;;;;;;;5281762;28;20048;-76
2023/03/12 07:08:30;;;;;;;5.20;2.22;;;;;;;;;;5281710;28;20548;-76
2023/03/12 07:11:01;;;;;;;6.72;3.00;;;;;;;;;;5282830;28;20031;-75
2023/03/12 07:13:32;;;;;;;6.60;2.65;;;;;;;;;;5281421;28;20020;-75
2023/03/12 07:16:04;;;;;;;5.55;2.50;;;;;;;;;;5282480;28;20016;-75
2023/03/12 07:18:35;;;;;;;6.93;2.53;;;;;;;;;;5281305;28;20027;-76
2023/03/12 07:21:06;;;;;;;3.85;2.08;;;;;;;;;;5281967;28;20111;-76
2023/03/12 07:23:38;;;;;;;5.84;2.72;;;;;;;;;;5282211;28;20353;-75
2023/03/12 07:26:09;;;;;;;7.45;3.38;;;;;;;;;;5281148;28;20363;-77
2023/03/12 07:28:40;;;;;;;9.13;3.45;;;;;;;;;;5281920;28;20515;-76
2023/03/12 07:31:11;;;;;;;7.93;3.47;;;;;;;;;;5282087;28;20028;-73
2023/03/12 07:33:42;;;;;;;6.80;2.95;;;;;;;;;;5281020;28;20588;-74
2023/03/12 07:36:14;;;;;;;5.43;3.10;;;;;;;;;;5282165;28;20023;-75
2023/03/12 07:38:45;;;;;;;4.68;2.60;;;;;;;;;;5280823;28;20034;-74
2023/03/12 07:41:16;;;;;;;4.07;2.95;;;;;;;;;;5281388;28;20482;-74
2023/03/12 07:43:47;;;;;;;5.15;2.70;;;;;;;;;;5281641;28;20036;-74
2023/03/12 07:46:19;;;;;;;4.93;2.67;;;;;;;;;;5282196;28;20051;-74
2023/03/12 07:48:50;;;;;;;7.05;3.45;;;;;;;;;;5280996;28;20013;-74
2023/03/12 07:51:21;;;;;;;8.02;4.13;;;;;;;;;;5281368;28;20067;-74
2023/03/12 07:53:52;;;;;;;7.00;3.53;;;;;;;;;;5280887;28;20016;-74
2023/03/12 07:56:23;;;;;;;4.97;3.35;;;;;;;;;;5281580;28;20020;-74
2023/03/12 07:58:55;;;;;;;5.50;3.55;;;;;;;;;;5281810;28;20459;-74
2023/03/12 08:01:30;;;;;;;5.40;3.45;;;;;;;;;;5280727;28;20028;-74
2023/03/12 08:04:02;;;;;;;5.93;3.50;;;;;;;;;;5282089;28;20430;-75
2023/03/12 08:06:33;;;;;;;5.38;3.45;;;;;;;;;;5281477;28;20074;-75
2023/03/12 08:09:04;;;;;;;5.80;3.42;;;;;;;;;;5281183;28;20087;-74
2023/03/12 08:11:36;;;;;;;4.60;3.35;;;;;;;;;;5281137;28;20131;-75
2023/03/12 08:14:07;;;;;;;4.55;3.50;;;;;;;;;;5281792;28;20459;-74
2023/03/12 08:16:38;;;;;;;6.88;3.63;;;;;;;;;;5280539;28;20501;-74
2023/03/12 08:19:10;;;;;;;7.10;3.55;;;;;;;;;;5281886;28;20366;-75
2023/03/12 08:21:41;;;;;;;5.35;3.88;;;;;;;;;;5281036;28;20078;-74
2023/03/12 08:24:12;;;;;;;4.82;3.70;;;;;;;;;;5281193;28;20027;-74
2023/03/12 08:26:43;;;;;;;5.20;3.42;;;;;;;;;;5281319;28;20074;-75
2023/03/12 08:29:15;;;;;;;4.82;3.58;;;;;;;;;;5281189;28;20422;-75
2023/03/12 08:31:46;;;;;;;3.60;2.83;;;;;;;;;;5281071;28;20050;-74
2023/03/12 08:34:18;;;;;;;4.18;3.20;;;;;;;;;;5281891;28;20033;-74
2023/03/12 08:36:49;;;;;;;4.30;3.10;;;;;;;;;;5280753;28;20122;-74
2023/03/12 08:39:20;;;;;;;4.72;2.85;;;;;;;;;;5281341;28;20020;-75
2023/03/12 08:41:54;;;;;;;5.38;3.95;;;;;;;;;;5281169;28;20074;-75
2023/03/12 08:44:25;;;;;;;4.63;3.72;;;;;;;;;;5280218;28;20017;-75
2023/03/12 08:46:56;;;;;;;3.80;3.15;;;;;;;;;;5281796;28;20409;-75
2023/03/12 08:49:27;;;;;;;4.15;3.45;;;;;;;;;;5280859;28;20068;-73
2023/03/12 08:51:59;;;;;;;4.54;3.48;;;;;;;;;;5280830;28;20060;-74
2023/03/12 08:54:30;;;;;;;4.88;4.10;;;;;;;;;;5280821;28;20086;-74
2023/03/12 08:57:01;;;;;;;5.18;4.13;;;;;;;;;;5281357;28;20476;-74
2023/03/12 08:59:32;;;;;;;4.72;4.28;;;;;;;;;;5280464;28;20009;-73
2023/03/12 09:02:04;;;;;;;8.15;6.28;;;;;;;;;;5281459;28;20028;-74
2023/03/12 09:04:35;;;;;;;7.95;5.75;;;;;;;;;;5279904;28;20017;-75
2023/03/12 09:07:06;;;;;;;8.75;6.80;;;;;;;;;;5281318;28;20033;-74
2023/03/12 09:09:37;;;;;;;10.32;7.07;;;;;;;;;;5280528;28;20375;-74
2023/03/12 09:12:08;;;;;;;8.73;7.78;;;;;;;;;;5284566;28;20033;-75
2023/03/12 09:14:39;;;;;;;11.10;8.20;;;;;;;;;;5284624;28;20036;-73
2023/03/12 09:17:11;;;;;;;12.48;9.27;;;;;;;;;;5285208;28;20019;-74
2023/03/12 09:19:42;;;;;;;10.07;9.02;;;;;;;;;;5283609;28;20414;-73
2023/03/12 09:22:13;;;;;;;10.07;9.07;;;;;;;;;;5284813;28;20024;-73
2023/03/12 09:24:44;;;;;;;10.50;9.18;;;;;;;;;;5284587;28;20017;-74
2023/03/12 09:27:15;;;;;;;11.48;9.18;;;;;;;;;;5284180;28;20203;-74
2023/03/12 09:29:48;;;;;;;10.93;9.43;;;;;;;;;;5284252;28;20028;-75
2023/03/12 09:32:19;;;;;;;11.77;10.30;;;;;;;;;;5283587;28;20382;-74
2023/03/12 09:34:50;;;;;;;12.65;10.13;;;;;;;;;;5284650;28;20025;-75
2023/03/12 09:37:21;;;;;;;11.02;9.82;;;;;;;;;;5284715;28;20028;-75
2023/03/12 09:39:53;;;;;;;11.98;10.68;;;;;;;;;;5283603;28;20113;-74
2023/03/12 09:42:25;;;;;;;13.23;11.70;;;;;;;;;;5284516;28;20481;-74
2023/03/12 09:45:00;;;;;;;12.65;11.35;;;;;;;;;;5284552;28;20024;-74
2023/03/12 09:47:33;;;;;;;13.10;11.77;;;;;;;;;;5282848;28;20016;-70
2023/03/12 09:50:14;;;;;;;13.45;12.15;;;;;;;;;;5284017;28;20047;-73
2023/03/12 09:52:49;;;;;;;13.13;11.75;;;;;;;;;;5283777;28;20036;-77
2023/03/12 09:55:21;;;;;;;12.75;11.35;;;;;;;;;;5283943;28;20017;-75
2023/03/12 09:57:52;;;;;;;13.35;12.13;;;;;;;;;;5284253;28;20082;-75
2023/03/12 10:00:27;;;;;;;12.98;11.77;;;;;;;;;;5283278;28;20039;-75
2023/03/12 10:03:06;;;;;;;12.98;11.68;;;;;;;;;;5283928;28;20050;-75
2023/03/12 10:05:37;;;;;;;;;;;;;;;;;;5283869;28;20445;-77
2023/03/12 10:08:08;;;;;;;14.43;11.40;;;;;;;;;;5283583;28;19931;-76
2023/03/12 10:10:52;;;;;;;12.40;11.20;;;;;;;;;;5283339;28;20259;-76
2023/03/12 10:13:37;;;;;;;13.88;12.00;;;;;;;;;;5283476;28;20012;-76
2023/03/12 10:16:08;;;;;;;12.90;11.60;;;;;;;;;;5283179;28;20099;-76
2023/03/12 10:18:45;;;;;;;14.08;12.52;;;;;;;;;;5283496;28;20120;-75
2023/03/12 10:21:16;;;;;;;14.32;12.02;;;;;;;;;;5283416;28;20111;-75
2023/03/12 10:23:53;;;;;;;13.40;12.00;;;;;;;;;;5282066;28;20559;-76
2023/03/12 10:26:28;;;;;;;14.00;12.57;;;;;;;;;;5282983;28;20025;-76
2023/03/12 10:29:01;;;;;;;14.27;12.88;;;;;;;;;;5282713;28;20055;-76
2023/03/12 10:31:52;;;;;;;17.30;12.70;;;;;;;;;;5282740;28;20060;-76
2023/03/12 10:34:33;;;;;;;17.40;14.20;;;;;;;;;;5283098;28;20021;-75
2023/03/12 10:37:11;;;;;;;22.75;15.02;;;;;;;;;;5282604;28;20052;-75
2023/03/12 10:39:43;;;;;;;23.73;15.23;;;;;;;;;;5282995;28;20110;-75
2023/03/12 10:42:21;;;;;;;19.38;13.43;;;;;;;;;;5283278;28;20529;-76
2023/03/12 10:44:55;;;;;;;17.80;13.55;;;;;;;;;;5282197;28;20017;-75
2023/03/12 10:47:31;;;;;;;24.05;14.05;;;;;;;;;;5282429;28;20023;-76
2023/03/12 10:50:19;;;;;;;24.23;14.73;;;;;;;;;;5282361;28;20495;-74
2023/03/12 10:52:52;;;;;;;19.40;13.32;;;;;;;;;;5282370;28;20039;-75
2023/03/12 10:55:25;;;;;;;23.35;14.10;;;;;;;;;;5282811;28;20091;-75
2023/03/12 10:57:56;;;;;;;21.67;12.77;;;;;;;;;;5282085;28;20019;-75
2023/03/12 11:00:29;;;;;;;26.20;13.85;;;;;;;;;;5282567;28;20025;-76
2023/03/12 11:03:04;;;;;;;17.92;11.98;;;;;;;;;;5283056;28;20017;-75
2023/03/12 11:05:47;;;;;;;18.00;11.45;;;;;;;;;;5281462;28;20020;-74
2023/03/12 11:08:32;;;;;;;21.23;11.90;;;;;;;;;;5282783;28;20414;-76
2023/03/12 11:11:03;;;;;;;22.80;11.70;;;;;;;;;;5281600;28;20040;-76
2023/03/12 11:13:36;;;;;;;20.30;10.82;;;;;;;;;;5277379;28;20028;-74
2023/03/12 11:16:14;;;;;;;22.27;10.57;;;;;;;;;;5282704;28;20021;-74
2023/03/12 11:18:58;;;;;;;19.73;10.02;;;;;;;;;;5281291;28;20108;-74
2023/03/12 11:21:31;;;;;;;22.50;9.07;;;;;;;;;;5276263;28;20029;-75
2023/03/12 11:24:06;;;;;;;23.00;10.20;;;;;;;;;;5262806;28;20376;-74
2023/03/12 11:26:49;;;;;;;21.90;9.05;;;;;;;;;;5260012;28;20116;-77
2023/03/12 11:29:20;;;;;;;23.60;9.18;;;;;;;;;;5260363;28;20024;-76
2023/03/12 11:31:54;;;;;;;19.52;8.45;;;;;;;;;;5260594;28;20028;-75
2023/03/12 11:34:29;;;;;;;23.70;8.27;;;;;;;;;;5259954;28;20301;-75
2023/03/12 11:37:03;;;;;;;24.17;7.15;;;;;;;;;;5261508;28;20088;-76
2023/03/12 11:39:48;;;;;;;25.00;8.43;;;;;;;;;;5260055;28;20020;-75
2023/03/12 11:42:30;;;;;;;21.75;7.50;;;;;;;;;;5259503;28;20021;-76
2023/03/12 11:45:13;;;;;;;19.52;7.35;;;;;;;;;;5259246;28;20375;-76
2023/03/12 11:48:07;;;;;;;23.48;8.30;;;;;;;;;;5257493;28;20029;-74
2023/03/12 11:50:54;;;;;;;20.55;7.55;;;;;;;;;;5257981;28;20070;-75
2023/03/12 11:53:44;;;;;;;25.92;9.07;;;;;;;;;;5257723;28;20091;-75
2023/03/12 11:56:32;;;;;;;24.50;8.63;;;;;;;;;;5258567;28;20084;-75
2023/03/12 11:59:15;;;;;;;21.92;8.35;;;;;;;;;;5261171;28;20025;-74
2023/03/12 12:01:56;;;;;;;26.38;8.30;;;;;;;;;;5259802;28;20388;-74
2023/03/12 12:04:45;;;;;;;24.35;8.38;;;;;;;;;;5258233;28;20033;-74
2023/03/12 12:07:16;;;;;;;21.58;7.85;;;;;;;;;;5259238;28;20032;-74
2023/03/12 12:09:47;;;;;;;23.25;7.20;;;;;;;;;;5260386;28;20033;-74
2023/03/12 12:12:36;;;;;;;16.85;5.38;;;;;;;;;;5261018;28;20124;-75
2023/03/12 12:15:14;;;;;;;21.45;7.50;;;;;;;;;;5260610;28;20275;-75
2023/03/12 12:17:57;;;;;;;23.42;6.60;;;;;;;;;;5260696;28;20388;-75
2023/03/12 12:20:28;;;;;;;19.75;5.82;;;;;;;;;;5260400;28;20036;-76
2023/03/12 12:22:59;;;;;;;19.77;4.97;;;;;;;;;;5260036;28;20029;-76
2023/03/12 12:25:43;;;;;;;18.30;4.93;;;;;;;;;;5260420;28;20025;-76
2023/03/12 12:28:33;;;;;;;17.23;4.57;;;;;;;;;;5260350;28;20375;-76
2023/03/12 12:31:13;;;;;;;17.15;4.47;;;;;;;;;;5260690;28;20036;-77
2023/03/12 12:33:53;;;;;;;22.50;4.80;;;;;;;;;;5260290;28;20601;-76
2023/03/12 12:36:26;;;;;;;13.18;3.47;;;;;;;;;;5259688;28;20492;-75
2023/03/12 12:39:04;;;;;;;17.90;4.65;;;;;;;;;;5260972;28;20096;-76
2023/03/12 12:41:38;;;;;;;17.90;3.95;;;;;;;;;;5260392;28;20029;-74
2023/03/12 12:44:38;;;;;;;21.60;4.57;;;;;;;;;;5260680;28;20029;-76
2023/03/12 12:47:16;;;;;;;20.48;5.25;;;;;;;;;;5268203;28;20317;-75
2023/03/12 12:49:49;;;;;;;15.35;4.38;;;;;;;;;;5263255;28;20492;-75
2023/03/12 12:52:21;;;;;;;19.50;5.25;;;;;;;;;;5264413;28;20391;-75
2023/03/12 12:54:55;;;;;;;19.92;6.57;;;;;;;;;;5264498;28;20020;-75
2023/03/12 12:57:38;;;;;;;20.60;5.97;;;;;;;;;;5263449;28;20025;-76
2023/03/12 13:00:18;;;;;;;23.77;6.60;;;;;;;;;;5264439;28;20021;-75
2023/03/12 13:02:50;;;;;;;18.42;6.03;;;;;;;;;;5264020;28;20053;-75
2023/03/12 13:05:25;;;;;;;18.95;5.15;;;;;;;;;;5263082;28;20061;-76
2023/03/12 13:07:56;;;;;;;18.65;5.60;;;;;;;;;;5264436;28;20380;-75
2023/03/12 13:10:33;;;;;;;22.67;4.82;;;;;;;;;;5263237;28;20079;-75
2023/03/12 13:13:12;;;;;;;17.38;5.15;;;;;;;;;;5264314;28;20529;-75
2023/03/12 13:15:43;;;;;;;25.95;5.50;;;;;;;;;;5263872;28;20024;-75
2023/03/12 13:18:25;;;;;;;24.02;6.10;;;;;;;;;;5263454;28;20090;-76
2023/03/12 13:21:05;;;;;;;18.92;6.00;;;;;;;;;;5264337;28;20048;-76
2023/03/12 13:23:44;;;;;;;19.98;5.40;;;;;;;;;;5263401;28;20028;-77
2023/03/12 13:26:33;;;;;;;22.02;5.20;;;;;;;;;;5263534;28;20029;-74
2023/03/12 13:29:12;;;;;;;20.45;6.22;;;;;;;;;;5264204;28;20025;-75
2023/03/12 13:31:44;;;;;;;;;;;;;;;;;;5263004;28;20133;-76
2023/03/12 13:34:18;;;;;;;24.30;5.50;;;;;;;;;;5263846;28;19992;-75
2023/03/12 13:36:50;;;;;;;24.90;5.88;;;;;;;;;;5263394;28;20275;-74
2023/03/12 13:39:32;;;;;;;23.10;4.88;;;;;;;;;;5262880;28;20017;-73
2023/03/12 13:42:21;;;;;;;21.88;4.63;;;;;;;;;;5263729;28;20029;-73
2023/03/12 13:44:54;;;;;;;18.23;4.50;;;;;;;;;;5263313;28;20100;-72
2023/03/12 13:47:29;;;;;;;22.80;5.35;;;;;;;;;;5262460;28;20017;-72
2023/03/12 13:50:06;;;;;;;22.30;5.07;;;;;;;;;;5263309;28;20095;-73
2023/03/12 13:52:38;;;;;;;16.15;3.45;;;;;;;;;;5262188;28;20080;-74
2023/03/12 13:55:12;;;;;;;21.53;4.67;;;;;;;;;;5263269;28;20452;-73
2023/03/12 13:57:44;;;;;;;24.40;5.97;;;;;;;;;;5262547;28;20314;-74
2023/03/12 14:00:24;;;;;;;22.65;5.97;;;;;;;;;;5262819;28;20044;-72
2023/03/12 14:02:59;;;;;;;23.55;4.78;;;;;;;;;;5263361;28;20024;-73
2023/03/12 14:05:33;;;;;;;20.83;3.47;;;;;;;;;;5262608;28;20020;-75
2023/03/12 14:08:08;;;;;;;24.02;4.47;;;;;;;;;;5262379;28;20090;-73
2023/03/12 14:11:01;;;;;;;21.48;4.40;;;;;;;;;;5262146;28;20083;-73
2023/03/12 14:13:54;;;;;;;26.20;4.53;;;;;;;;;;5262170;28;20044;-74
2023/03/12 14:16:35;;;;;;;19.75;3.20;;;;;;;;;;5262554;28;20028;-74
2023/03/12 14:19:09;;;;;;;20.67;3.70;;;;;;;;;;5262980;28;20159;-73
2023/03/12 14:21:42;;;;;;;17.15;3.20;;;;;;;;;;5261648;28;20079;-75
2023/03/12 14:24:24;;;;;;;14.77;2.78;;;;;;;;;;5262940;28;20032;-73
2023/03/12 14:26:56;;;;;;;21.75;3.80;;;;;;;;;;5262533;28;20424;-74
2023/03/12 14:29:35;;;;;;;16.75;2.72;;;;;;;;;;5261793;28;20431;-75
2023/03/12 14:32:14;;;;;;;21.42;3.53;;;;;;;;;;5262284;28;20025;-73
2023/03/12 14:34:48;;;;;;;17.08;3.30;;;;;;;;;;5261151;28;20074;-74
2023/03/12 14:37:22;;;;;;;20.15;3.58;;;;;;;;;;5262300;28;20052;-74
2023/03/12 14:39:59;;;;;;;14.70;3.42;;;;;;;;;;5262098;28;20025;-73
2023/03/12 14:42:32;;;;;;;18.45;3.25;;;;;;;;;;5260266;28;20044;-74
2023/03/12 14:45:06;;;;;;;17.08;3.22;;;;;;;;;;5262022;28;20056;-73
2023/03/12 14:47:40;;;;;;;18.50;3.38;;;;;;;;;;5261614;28;20116;-74
2023/03/12 14:50:29;;;;;;;17.85;3.58;;;;;;;;;;5261537;28;20052;-73
2023/03/12 14:53:11;;;;;;;19.52;3.58;;;;;;;;;;5262166;28;20116;-72
2023/03/12 14:55:42;;;;;;;17.13;2.75;;;;;;;;;;5261465;28;20028;-73
2023/03/12 14:58:18;;;;;;;16.02;3.63;;;;;;;;;;5261374;28;20025;-74
2023/03/12 15:00:54;;;;;;;17.20;2.97;;;;;;;;;;5261410;28;20050;-73
2023/03/12 15:03:26;;;;;;;23.40;4.28;;;;;;;;;;5260985;28;20455;-73
2023/03/12 15:05:57;;;;;;;21.10;3.55;;;;;;;;;;5262162;28;20009;-73
2023/03/12 15:08:31;;;;;;;17.55;3.58;;;;;;;;;;5260704;28;20017;-74
2023/03/12 15:11:02;;;;;;;22.38;4.28;;;;;;;;;;5261201;28;20472;-75
2023/03/12 15:13:36;;;;;;;22.17;4.47;;;;;;;;;;5261272;28;20032;-72